Terminal Aerodrome Forecast
Issued by NWS Bismarck, ND

Home | Current Version | Previous Version | Text Only | Print | Product List | Glossary Off
Versions: 1 2 3 4 5 6 7 8 9 10 11 12 13 14

000
FTUS43 KBIS 270314 AAA
TAFISN
TAF AMD
KISN 270314Z 2703/2724 15011KT P6SM FEW250
     FM270500 14008KT P6SM FEW130 SCT250 WS020/17040KT
     FM270800 16009KT P6SM VCTS SCT100CB BKN200
     FM271300 19009KT P6SM FEW110 SCT200
     FM272000 24008KT P6SM BKN200
     FM272300 31012KT P6SM BKN150=

USA.gov is the U.S. government's official web portal to all federal, state and local government web resources and services.